This is the latest recevied weather packets stored in our database for station/object KC1OEK-13. If no packets are shown the sender has not sent any weather packets the latest 10 day(s).
| Time | Temp. | Humidity | Pressure | Rain* | Wind** | Luminosity | Snow |
|---|---|---|---|---|---|---|---|
| 1787976605 | 16.67° C | 79% | 1022 hPa | 0 mm | - | 0 W/m² | - |
| 1787976300 | 17.22° C | 78% | 1021.7 hPa | 0 mm | - | 0 W/m² | - |
| 1787975998 | 17.22° C | 79% | 1021.7 hPa | 0 mm | - | 0 W/m² | - |
| 1787975693 | 17.22° C | 79% | 1021.6 hPa | 0 mm | - | 0 W/m² | - |
| 1787975392 | 17.78° C | 78% | 1021.6 hPa | 0 mm | - | 0 W/m² | - |
| 1787975091 | 17.78° C | 76% | 1021.5 hPa | 0 mm | - | 0 W/m² | - |
| 1787974790 | 18.33° C | 75% | 1021.4 hPa | 0 mm | - | 0 W/m² | - |
| 1787974489 | 18.33° C | 74% | 1021.2 hPa | 0 mm | - | 0 W/m² | - |
| 1787974189 | 18.89° C | 72% | 1021.3 hPa | 0 mm | - | 0 W/m² | - |
| 1787973884 | 18.89° C | 72% | 1021.4 hPa | 0 mm | - | 0 W/m² | - |
| 1787973578 | 19.44° C | 71% | 1021.2 hPa | 0 mm | - | 0 W/m² | - |
| 1787973275 | 19.44° C | 72% | 1021.2 hPa | 0 mm | - | 0 W/m² | - |
| 1787972973 | 19.44° C | 71% | 1021.1 hPa | 0 mm | - | 0 W/m² | - |
| 1787972669 | 19.44° C | 74% | 1021.2 hPa | 0 mm | - | 0 W/m² | - |
| 1787972367 | 20° C | 73% | 1021.1 hPa | 0 mm | - | 0 W/m² | - |
| 1787972062 | 19.44° C | 74% | 1021 hPa | 0 mm | - | 0 W/m² | - |
| 1787971757 | 19.44° C | 78% | 1020.8 hPa | 0 mm | - | 0 W/m² | - |
| 1787971453 | 18.89° C | 81% | 1020.8 hPa | 0 mm | - | 0 W/m² | - |
| 1787971149 | 19.44° C | 85% | 1021 hPa | 0 mm | - | 0 W/m² | - |
| 1787970847 | 19.44° C | 85% | 1020.7 hPa | 0 mm | - | 0 W/m² | - |
| 1787970542 | 18.89° C | 88% | 1020.8 hPa | 0 mm | - | 0 W/m² | - |
| 1787970242 | 19.44° C | 86% | 1020.7 hPa | 0 mm | - | 0 W/m² | - |
| 1787969936 | 19.44° C | 85% | 1020.7 hPa | 0 mm | - | 0 W/m² | - |
| 1787969635 | 18.89° C | 90% | 1020.7 hPa | 0 mm | - | 0 W/m² | - |
| 1787969335 | 18.89° C | 91% | 1020.6 hPa | 0 mm | - | 0 W/m² | - |
* Rain latest hour (hover to see other rain measurements)
** Current wind speed in m/s (hover to see current wind gust speed)